METAR (acronimo di METeorological Air Report) è un messaggio meteo emesso nella maggior parte dei casi in ambito aeroportuale

LIPF - Ferrara, It
Distanza dalla Stazione: 8 km
Ultimo Aggiornamento: Giovedì 29 Ottobre 2020 18:55 CET
Sereno
Sereno
 Wind from calm
Vento: Calma
Temperatura: 13°C
Punto di Rugiada: 12°C
Umidità: 94%
Barometro: 1019 hPa
Condizioni: Sereno
Visibilità: superiore a 10 km
2020/10/29 17:55 LIPF 291755Z 00000KT CAVOK 13/12 Q1019
LIPE - Bologna Borgo Panigale, It
Distanza dalla Stazione: 46 km
Ultimo Aggiornamento: Giovedì 29 Ottobre 2020 19:20 CET
Sereno
Sereno
 Wind from varies
Vento: variabile 2 km/h
Temperatura: 13°C
Punto di Rugiada: 10°C
Umidità: 82%
Barometro: 1020 hPa
Condizioni: Sereno
Visibilità: superiore a 10 km
2020/10/29 18:20 LIPE 291820Z VRB01KT CAVOK 13/10 Q1020
LIMF - Torino Caselle, It
Distanza dalla Stazione: 320 km
Ultimo Aggiornamento: Giovedì 29 Ottobre 2020 19:20 CET
Parzialmente Nuvoloso
Parzialmente Nuvoloso
 Wind from Ovest-Nord-Ovest
Vento: Ovest-Nord-Ovest 9 km/h
Temperatura: 12°C
Punto di Rugiada: 9°C
Umidità: 82%
Barometro: 1020 hPa
Nuvole: Parzialmente Nuvoloso
Visibilità: 10 km
Nuvole nel Dettaglio: Parzialmente Nuvoloso 3658 m
2020/10/29 18:20 LIMF 291820Z 29005KT 9999 SCT120 12/09 Q1020
 
LIML - Milano Malpensa, It
Distanza dalla Stazione: 249 km
Ultimo Aggiornamento: Giovedì 29 Ottobre 2020 19:20 CET
Sereno
Sereno
 Wind from varies
Vento: variabile 2 km/h
Temperatura: 11°C
Punto di Rugiada: 10°C
Umidità: 94%
Barometro: 1020 hPa
Condizioni: Sereno
Visibilità: superiore a 10 km
2020/10/29 18:20 LIML 291820Z VRB01KT CAVOK 11/10 Q1020 NOSIG
LIME - Bergamo Orio al Serio, It
Distanza dalla Stazione: 181 km
Ultimo Aggiornamento: Giovedì 29 Ottobre 2020 19:20 CET
Parzialmente Nuvoloso
Parzialmente Nuvoloso
 Wind from Nord
Vento: Nord 6 km/h
Temperatura: 12°C
Punto di Rugiada: 10°C
Umidità: 88%
Barometro: 1020 hPa
Nuvole: Parzialmente Nuvoloso
Visibilità: 9 km
2020/10/29 18:20 LIME 291820Z 36003KT 9000 NSC 12/10 Q1020 NOSIG
LIPZ - Venezia Tessera, It
Distanza dalla Stazione: 93 km
Ultimo Aggiornamento: Giovedì 29 Ottobre 2020 19:20 CET
Parzialmente Nuvoloso
Parzialmente Nuvoloso
 Wind from Sud-Sud-Est
Vento: Sud-Sud-Est 6 km/h
Temperatura: 12°C
Punto di Rugiada: 12°C
Umidità: 100%
Barometro: 1020 hPa
Nuvole: Parzialmente Nuvoloso
Visibilità: 8 km
2020/10/29 18:20 LIPZ 291820Z 15003KT 8000 NSC 12/12 Q1020 NOSIG
 
LIVT - Trieste, It
Distanza dalla Stazione: 179 km
Ultimo Aggiornamento: Giovedì 29 Ottobre 2020 18:55 CET
Sereno
Sereno
 Wind from varies
Vento: variabile 0 km/h
Temperatura: 12°C
Punto di Rugiada: 11°C
Umidità: 94%
Barometro: 1019 hPa
Condizioni: Sereno
Visibilità: superiore a 10 km
2020/10/29 17:55 LIVT 291755Z /////KT CAVOK 12/11 Q1019 RMK SCT SCT130 QUK / QUL / VIS MAR 20 KM VIS MIN 9999
LIMJ - Genova, It
Distanza dalla Stazione: 229 km
Ultimo Aggiornamento: Giovedì 29 Ottobre 2020 19:20 CET
Prevalentemente Nuvoloso
Prevalentemente Nuvoloso
 Wind from varies
Vento: variabile 4 km/h
Temperatura: 18°C
Punto di Rugiada: 13°C
Umidità: 73%
Barometro: 1020 hPa
Nuvole: Prevalentemente Nuvoloso
Visibilità: 10 km
Nuvole nel Dettaglio: Qualche Nuvola 701 m
Prevalentemente Nuvoloso 1067 m
2020/10/29 18:20 LIMJ 291820Z VRB02KT 9999 FEW023 BKN035 18/13 Q1020
LIRQ - Firenze Amerigo Vespucci, It
Distanza dalla Stazione: 119 km
Ultimo Aggiornamento: Giovedì 29 Ottobre 2020 19:20 CET
Qualche Nuvola
Qualche Nuvola
 Wind from Est-Sud-Est
Vento: Est-Sud-Est 6 km/h
Temperatura: 15°C
Punto di Rugiada: 12°C
Umidità: 82%
Barometro: 1021 hPa
Nuvole: Qualche Nuvola
Visibilità: 10 km
Nuvole nel Dettaglio: Qualche Nuvola 1219 m
2020/10/29 18:20 LIRQ 291820Z 12003KT 100V160 9999 FEW040 15/12 Q1021
 
LIPY - Ancona, It
Distanza dalla Stazione: 189 km
Ultimo Aggiornamento: Giovedì 29 Ottobre 2020 19:20 CET
Qualche Nuvola
Qualche Nuvola
 Wind from Sud
Vento: Sud 6 km/h
Temperatura: 13°C
Punto di Rugiada: 12°C
Umidità: 94%
Barometro: 1020 hPa
Nuvole: Qualche Nuvola
Visibilità: 10 km
Nuvole nel Dettaglio: Qualche Nuvola 1311 m
2020/10/29 18:20 LIPY 291820Z AUTO 17003KT 9999 FEW043/// 13/12 Q1020
LIBP - Pescara, It
Distanza dalla Stazione: 333 km
Ultimo Aggiornamento: Giovedì 29 Ottobre 2020 19:20 CET
Sereno
Sereno
 Wind from Sud-Ovest
Vento: Sud-Ovest 7 km/h
Temperatura: 12°C
Punto di Rugiada: 9°C
Umidità: 82%
Barometro: 1021 hPa
Nuvole: Sereno
Visibilità: 10 km
2020/10/29 18:20 LIBP 291820Z AUTO 22004KT 9999 NCD 12/09 Q1021
LIRF - Roma-Fiumicino, It
Distanza dalla Stazione: 334 km
Ultimo Aggiornamento: Giovedì 29 Ottobre 2020 19:20 CET
Sereno
Sereno
 Wind from Est-Nord-Est
Vento: Est-Nord-Est 7 km/h
Temperatura: 13°C
Punto di Rugiada: 12°C
Umidità: 94%
Barometro: 1020 hPa
Condizioni: Sereno
Visibilità: superiore a 10 km
2020/10/29 18:20 LIRF 291820Z 06004KT CAVOK 13/12 Q1020 NOSIG
 
LIRN - Napoli Capodichino, It
Distanza dalla Stazione: 494 km
Ultimo Aggiornamento: Giovedì 29 Ottobre 2020 19:20 CET
Qualche Nuvola
Qualche Nuvola
 Wind from Ovest-Sud-Ovest
Vento: Ovest-Sud-Ovest 7 km/h
Temperatura: 16°C
Punto di Rugiada: 12°C
Umidità: 77%
Barometro: 1021 hPa
Nuvole: Qualche Nuvola
Visibilità: 10 km
Nuvole nel Dettaglio: Qualche Nuvola 1676 m
2020/10/29 18:20 LIRN 291820Z 25004KT 9999 FEW055 16/12 Q1021 NOSIG
LIBD - Bari Palese, It
Distanza dalla Stazione: 594 km
Ultimo Aggiornamento: Giovedì 29 Ottobre 2020 19:20 CET
Sereno
Sereno
 Wind from Ovest-Sud-Ovest
Vento: Ovest-Sud-Ovest 9 km/h
Temperatura: 13°C
Punto di Rugiada: 9°C
Umidità: 77%
Barometro: 1020 hPa
Condizioni: Sereno
Visibilità: superiore a 10 km
2020/10/29 18:20 LIBD 291820Z 25005KT CAVOK 13/09 Q1020
LIBG - Taranto Grottaglie, It
Distanza dalla Stazione: 670 km
Ultimo Aggiornamento: Giovedì 29 Ottobre 2020 18:50 CET
Sereno
Sereno
 Wind from Nord-Nord-Ovest
Vento: Nord-Nord-Ovest 6 km/h
Temperatura: 16°C
Punto di Rugiada: 10°C
Umidità: 68%
Barometro: 1019 hPa
Condizioni: Sereno
Visibilità: superiore a 10 km
2020/10/29 17:50 LIBG 291750Z 34003KT CAVOK 16/10 Q1019
 
LICR - Reggio Calabria, It
Distanza dalla Stazione: 819 km
Ultimo Aggiornamento: Giovedì 29 Ottobre 2020 18:50 CET
Parzialmente Nuvoloso
Parzialmente Nuvoloso
 Wind from Nord
Vento: Nord 22 km/h
Temperatura: 19°C
Punto di Rugiada: 14°C
Umidità: 73%
Barometro: 1021 hPa
Nuvole: Parzialmente Nuvoloso
Visibilità: 10 km
Nuvole nel Dettaglio: Parzialmente Nuvoloso 1219 m
2020/10/29 17:50 LICR 291750Z 36012KT 9999 SCT040 19/14 Q1021
LICJ - Palermo Punta Raisi, It
Distanza dalla Stazione: 762 km
Ultimo Aggiornamento: Giovedì 29 Ottobre 2020 19:20 CET
Parzialmente Nuvoloso
Parzialmente Nuvoloso
 Wind from Sud
Vento: Sud 7 km/h
Temperatura: 19°C
Punto di Rugiada: 13°C
Umidità: 68%
Barometro: 1022 hPa
Nuvole: Parzialmente Nuvoloso
Visibilità: 10 km
Nuvole nel Dettaglio: Qualche Nuvola 762 m
Parzialmente Nuvoloso 1219 m
2020/10/29 18:20 LICJ 291820Z 18004KT 9999 FEW025 SCT040 19/13 Q1022
LICC - Catania Fontanarossa, It
Distanza dalla Stazione: 866 km
Ultimo Aggiornamento: Giovedì 29 Ottobre 2020 19:20 CET
Sereno
Sereno
 Wind from Ovest-Sud-Ovest
Vento: Ovest-Sud-Ovest 11 km/h
Temperatura: 16°C
Punto di Rugiada: 12°C
Umidità: 77%
Barometro: 1021 hPa
Condizioni: Sereno
Visibilità: superiore a 10 km
2020/10/29 18:20 LICC 291820Z 25006KT CAVOK 16/12 Q1021
 
LIEE - Cagliari Elmas, It
Distanza dalla Stazione: 655 km
Ultimo Aggiornamento: Giovedì 29 Ottobre 2020 19:20 CET
Sereno
Sereno
 Wind from Nord-Nord-Ovest
Vento: Nord-Nord-Ovest 11 km/h
Temperatura: 16°C
Punto di Rugiada: 12°C
Umidità: 77%
Barometro: 1024 hPa
Condizioni: Sereno
Visibilità: superiore a 10 km
2020/10/29 18:20 LIEE 291820Z 34006KT CAVOK 16/12 Q1024
LIEO - Olbia, It
Distanza dalla Stazione: 463 km
Ultimo Aggiornamento: Giovedì 29 Ottobre 2020 19:20 CET
Parzialmente Nuvoloso
Parzialmente Nuvoloso
 Wind from Ovest-Sud-Ovest
Vento: Ovest-Sud-Ovest 15 km/h
Temperatura: 18°C
Punto di Rugiada: 11°C
Umidità: 64%
Barometro: 1022 hPa
Nuvole: Parzialmente Nuvoloso
Visibilità: 10 km
Nuvole nel Dettaglio: Parzialmente Nuvoloso 914 m
2020/10/29 18:20 LIEO 291820Z 25008KT 9999 SCT030 18/11 Q1022
LICG - Pantelleria, It
Distanza dalla Stazione: 893 km
Ultimo Aggiornamento: Giovedì 29 Ottobre 2020 18:50 CET
Qualche Nuvola
Qualche Nuvola
 Wind from Ovest
Vento: Ovest 20 km/h
Temperatura: 18°C
Punto di Rugiada: 15°C
Umidità: 83%
Barometro: 1024 hPa
Nuvole: Qualche Nuvola
Visibilità: 10 km
Nuvole nel Dettaglio: Qualche Nuvola 457 m
2020/10/29 17:50 LICG 291750Z 28011KT 240V340 9999 FEW015 18/15 Q1024